No particular awareness of the weather is required.   -   There are no Weather-warnings

Nearby METAR Reports

 

LEZL - Sevilla, Spain
Distance from station: ENE 8km
Updated: 15/08/2018 05:30
Clear
Clear
 Wind from varies
Wind: varies 4 km/h
Temperature: 18°C
Dew Point: 16°C
Humidity: 88%
Barometer: 1016 hPa
Summary: Clear
Visibility: greater than 10 km
2018/08/15 03:30 LEZL 150330Z VRB02KT CAVOK 18/16 Q1016 NOSIG
LEMO - Morón, Spain
Distance from station: SE 43km
Updated: 14/08/2018 15:00
NOT Current
Clear
Clear
 Wind from WSW
Wind: WSW 11 km/h
Temperature: 31°C
Heat Index: 31°C
Dew Point: 16°C
Humidity: 40%
Barometer: 1016 hPa
Summary: Clear
Visibility: greater than 10 km
2018/08/14 13:00 LEMO 141300Z 25006KT 170V320 CAVOK 31/16 Q1016 NOSIG
LEJR - Jeréz, Spain
Distance from station: S 71km
Updated: 15/08/2018 06:00
Mostly cloudy
Mostly cloudy
 Wind from SE
Wind: SE 4 km/h
Temperature: 17°C
Dew Point: 16°C
Humidity: 94%
Barometer: 1016 hPa
Clouds: Mostly cloudy
Visibility: 10 km
Cloud details: Mostly cloudy 213 m
2018/08/15 04:00 LEJR 150400Z 13002KT 9999 BKN007 17/16 Q1016
 
LERT - Rota, Spain
Distance from station: SSW 89km
Updated: 15/08/2018 06:00
Partly cloudy
Partly cloudy
 Wind from S
Wind: S 15 km/h
Temperature: 21°C
Dew Point: 19°C
Humidity: 88%
Barometer: 1016 hPa
Clouds: Partly cloudy
Visibility: 10 km
Cloud details: Partly cloudy 305 m
2018/08/15 04:00 LERT 150400Z 18008KT 160V220 9999 SCT010 21/19 Q1016 TEMPO 3000 BR BKN004
LEMG - Málaga, Spain
Distance from station: ESE 157km
Updated: 15/08/2018 06:00
Mostly cloudy
Mostly cloudy
 Wind from E
Wind: E 9 km/h
Temperature: 25°C
Dew Point: 23°C
Humidity: 89%
Barometer: 1016 hPa
Clouds: Mostly cloudy
Visibility: 8 km
Cloud details: Mostly cloudy 305 m
2018/08/15 04:00 LEMG 150400Z 09005KT 050V120 8000 BKN010 25/23 Q1016 TEMPO SCT010
LEBA - Córdoba, Spain
Distance from station: ENE 115km
Updated: 15/08/2018 06:00
Clear
Clear
 Wind from SW
Wind: SW 7 km/h
Temperature: 18°C
Dew Point: 12°C
Humidity: 68%
Barometer: 1016 hPa
Clouds: Clear
Visibility: 10 km
2018/08/15 04:00 LEBA 150400Z AUTO 22004KT 9999 NCD 18/12 Q1016
 
LEGR - Granada, Spain
Distance from station: E 198km
Updated: 15/08/2018 06:00
Clear
Clear
 Wind from varies
Wind: varies 2 km/h
Temperature: 19°C
Dew Point: 11°C
Humidity: 60%
Barometer: 1018 hPa
Summary: Clear
Visibility: greater than 10 km
2018/08/15 04:00 LEGR 150400Z VRB01KT CAVOK 19/11 Q1018
LEAM - Almería, Spain
Distance from station: E 326km
Updated: 15/08/2018 06:00
Clear
Clear
 Wind from N
Wind: N 6 km/h
Temperature: 26°C
Dew Point: 21°C
Humidity: 74%
Barometer: 1015 hPa
Summary: Clear
Visibility: greater than 10 km
2018/08/15 04:00 LEAM 150400Z 36003KT CAVOK 26/21 Q1015
LEMD - Madrid/Barajas, Spain
Distance from station: NNE 402km
Updated: 15/08/2018 06:00
Clear
Clear
 Wind from N
Wind: N 6 km/h
Temperature: 19°C
Dew Point: 10°C
Humidity: 56%
Barometer: 1019 hPa
Summary: Clear
Visibility: greater than 10 km
2018/08/15 04:00 LEMD 150400Z 36003KT CAVOK 19/10 Q1019 NOSIG
 
LEVD - Valladolid, Spain
Distance from station: N 492km
Updated: 14/08/2018 21:30
NOT Current
Clear
Clear
 Wind from ENE
Wind: ENE 13 km/h
Temperature: 21°C
Dew Point: 9°C
Humidity: 46%
Barometer: 1021 hPa
Summary: Clear
Visibility: greater than 10 km
2018/08/14 19:30 LEVD 141930Z 07007KT CAVOK 21/09 Q1021
LEBL - Barcelona, Spain
Distance from station: NE 816km
Updated: 15/08/2018 06:00
Partly cloudy
Partly cloudy
 Wind from NW
Wind: NW 9 km/h
Temperature: 24°C
Dew Point: 20°C
Humidity: 78%
Barometer: 1017 hPa
Clouds: Partly cloudy
Visibility: 10 km
Cloud details: Partly cloudy 1219 m
2018/08/15 04:00 LEBL 150400Z 32005KT 9999 SCT040 24/20 Q1017 NOSIG
LEVC - Valencia, Spain
Distance from station: ENE 535km
Updated: 15/08/2018 06:00
Mostly cloudy
Mostly cloudy
 Wind from WNW
Wind: WNW 6 km/h
Temperature: 25°C
Dew Point: 21°C
Humidity: 79%
Barometer: 1017 hPa
Clouds: Mostly cloudy
Visibility: 10 km
Cloud details: Few Clouds 518 m
Mostly cloudy 1829 m
2018/08/15 04:00 LEVC 150400Z 30003KT 9999 FEW017 BKN060 25/21 Q1017 NOSIG